createdAt,value
2018-12-01T00:01:38.284Z,68.35
2018-12-01T00:04:28.305Z,69.01
2018-12-01T00:07:33.767Z,69.81
2018-12-01T00:10:23.669Z,70.31
2018-12-01T00:13:13.746Z,70.47
2018-12-01T00:16:05.385Z,70.01
2018-12-01T00:18:55.384Z,69.99
2018-12-01T00:21:46.283Z,70.52
2018-12-01T00:24:36.143Z,71.99
2018-12-01T00:27:26.827Z,71.84
2018-12-01T00:30:18.634Z,70.15
2018-12-01T00:33:08.904Z,70.94
2018-12-01T00:35:58.843Z,71.03
2018-12-01T00:38:49.703Z,70.84
2018-12-01T00:41:39.697Z,70.92
2018-12-01T00:44:30.348Z,70.71
2018-12-01T00:47:20.217Z,70.63
2018-12-01T00:50:14.740Z,69.91
2018-12-01T00:53:04.646Z,70.29
2018-12-01T00:55:54.466Z,70.20
2018-12-01T00:58:44.554Z,71.92
2018-12-01T01:01:35.439Z,70.15
2018-12-01T01:04:25.132Z,70.90
2018-12-01T01:07:15.139Z,71.01
2018-12-01T01:10:05.895Z,69.91
2018-12-01T01:12:56.098Z,70.20
2018-12-01T01:15:46.819Z,70.77
2018-12-01T01:18:37.266Z,70.27
2018-12-01T01:21:27.745Z,71.18
2018-12-01T01:24:18.491Z,71.83
2018-12-01T01:27:09.315Z,71.61
2018-12-01T01:30:00.119Z,70.67
2018-12-01T01:32:50.678Z,69.74
2018-12-01T01:35:40.974Z,70.01
2018-12-01T01:38:30.683Z,69.41
2018-12-01T01:41:20.762Z,69.87
2018-12-01T01:44:11.382Z,70.43
2018-12-01T01:47:02.374Z,70.02
2018-12-01T01:49:53.126Z,69.69
2018-12-01T01:52:42.978Z,70.73
2018-12-01T01:55:33.732Z,68.32
2018-12-01T01:58:23.991Z,70.09
2018-12-01T02:01:14.828Z,69.04
2018-12-01T02:04:05.878Z,68.88
2018-12-01T02:06:56.516Z,69.12
2018-12-01T02:09:47.481Z,69.41
2018-12-01T02:12:38.321Z,68.89
2018-12-01T02:15:28.265Z,67.43
2018-12-01T02:18:18.995Z,67.24
2018-12-01T02:21:09.034Z,68.04
2018-12-01T02:23:59.699Z,66.97
2018-12-01T02:26:50.498Z,67.92
2018-12-01T02:29:41.137Z,68.49
2018-12-01T02:32:32.044Z,67.38
2018-12-01T02:35:26.005Z,66.55
2018-12-01T02:38:16.466Z,67.07
2018-12-01T02:41:06.312Z,66.19
2018-12-01T02:44:07.928Z,67.02
2018-12-01T02:47:12.579Z,66.09
2018-12-01T02:50:03.315Z,67.17
2018-12-01T02:52:54.783Z,65.79
2018-12-01T02:55:44.920Z,65.29
2018-12-01T02:58:35.497Z,65.79
2018-12-01T03:01:27.280Z,65.69
2018-12-01T03:04:17.123Z,65.76
2018-12-01T03:07:07.046Z,65.92
2018-12-01T03:09:56.890Z,66.73
2018-12-01T03:12:47.583Z,66.59
2018-12-01T03:15:38.226Z,66.88
2018-12-01T03:18:28.282Z,65.97
2018-12-01T03:21:19.016Z,65.59
2018-12-01T03:24:09.857Z,65.36
2018-12-01T03:27:00.543Z,66.19
2018-12-01T03:29:50.419Z,64.89
2018-12-01T03:32:40.432Z,64.74
2018-12-01T03:35:30.334Z,64.93
2018-12-01T03:38:21.218Z,64.67
2018-12-01T03:41:11.149Z,64.65
2018-12-01T03:44:01.066Z,66.35
2018-12-01T03:46:51.828Z,66.37
2018-12-01T03:49:42.610Z,64.38
2018-12-01T03:52:32.597Z,63.98
2018-12-01T03:55:33.495Z,63.92
2018-12-01T03:58:23.575Z,63.37
2018-12-01T04:01:14.239Z,63.14
2018-12-01T04:04:04.361Z,63.55
2018-12-01T04:06:55.218Z,63.49
2018-12-01T04:09:45.933Z,63.05
2018-12-01T04:12:36.044Z,63.45
2018-12-01T04:15:25.960Z,66.50
2018-12-01T04:18:16.634Z,65.08
2018-12-01T04:21:07.314Z,66.62
2018-12-01T04:23:57.148Z,66.09
2018-12-01T04:26:47.200Z,67.18
2018-12-01T04:29:38.003Z,67.48
2018-12-01T04:32:29.042Z,67.42
2018-12-01T04:35:20.657Z,66.65
2018-12-01T04:38:10.635Z,69.18
2018-12-01T04:41:00.592Z,68.49
2018-12-01T04:43:50.386Z,69.09
2018-12-01T04:46:41.287Z,68.39
2018-12-01T04:49:32.047Z,68.33
2018-12-01T04:52:22.741Z,68.64
2018-12-01T04:55:14.617Z,68.62
2018-12-01T04:58:05.287Z,68.98
2018-12-01T05:00:56.054Z,70.33
2018-12-01T05:03:46.275Z,71.87
2018-12-01T05:06:36.092Z,70.97
2018-12-01T05:09:26.713Z,71.06
2018-12-01T05:12:16.650Z,70.90
2018-12-01T05:15:08.845Z,71.55
2018-12-01T05:17:58.928Z,73.30
2018-12-01T05:20:49.623Z,72.53
2018-12-01T05:23:40.458Z,72.49
2018-12-01T05:26:31.239Z,73.53
2018-12-01T05:29:22.002Z,74.15
2018-12-01T05:32:11.924Z,74.26
2018-12-01T05:35:02.752Z,73.61
2018-12-01T05:37:53.435Z,72.93
2018-12-01T05:40:44.299Z,72.16
2018-12-01T05:43:35.140Z,72.35
2018-12-01T05:46:25.984Z,71.94
2018-12-01T05:49:16.284Z,71.70
2018-12-01T05:52:06.909Z,71.46
2018-12-01T05:54:57.697Z,72.27
2018-12-01T05:57:47.774Z,71.68
2018-12-01T06:00:37.709Z,72.40
2018-12-01T06:03:29.388Z,73.47
2018-12-01T06:06:19.074Z,73.81
2018-12-01T06:09:09.785Z,73.01
2018-12-01T06:12:00.386Z,72.19
2018-12-01T06:14:50.306Z,71.79
2018-12-01T06:17:40.129Z,71.85
2018-12-01T06:20:30.110Z,73.19
2018-12-01T06:23:20.832Z,74.20
2018-12-01T06:26:12.059Z,74.34
2018-12-01T06:29:02.758Z,74.97
2018-12-01T06:31:52.735Z,73.52
2018-12-01T06:34:42.677Z,71.99
2018-12-01T06:37:32.644Z,72.37
2018-12-01T06:40:22.862Z,72.29
2018-12-01T06:43:13.487Z,72.40
2018-12-01T06:46:04.157Z,71.83
2018-12-01T06:48:54.637Z,70.52
2018-12-01T06:51:45.020Z,72.46
2018-12-01T06:54:35.775Z,73.03
2018-12-01T06:57:25.524Z,72.49
2018-12-01T07:00:16.499Z,71.77
2018-12-01T07:03:07.374Z,70.31
2018-12-01T07:05:58.045Z,71.44
2018-12-01T07:08:48.743Z,70.98
2018-12-01T07:11:38.668Z,71.28
2018-12-01T07:14:29.282Z,71.31
2018-12-01T07:17:19.248Z,69.33
2018-12-01T07:20:10.016Z,69.67
2018-12-01T07:23:00.079Z,69.74
2018-12-01T07:25:49.874Z,70.07
2018-12-01T07:28:39.882Z,69.94
2018-12-01T07:31:29.558Z,70.98
2018-12-01T07:34:19.605Z,70.45
2018-12-01T07:37:09.464Z,69.21
2018-12-01T07:39:59.563Z,69.11
2018-12-01T07:42:50.766Z,68.25
2018-12-01T07:45:41.551Z,66.98
2018-12-01T07:48:32.078Z,66.35
2018-12-01T07:51:22.915Z,65.92
2018-12-01T07:54:13.064Z,65.12
2018-12-01T07:57:03.029Z,64.69
2018-12-01T07:59:53.791Z,64.66
2018-12-01T08:02:45.602Z,64.58
2018-12-01T08:05:36.440Z,63.98
2018-12-01T08:08:26.506Z,63.07
2018-12-01T08:11:16.262Z,62.17
2018-12-01T08:14:06.331Z,60.88
2018-12-01T08:16:56.914Z,59.49
2018-12-01T08:19:46.896Z,59.50
2018-12-01T08:22:37.627Z,57.67
2018-12-01T08:25:28.546Z,57.15
2018-12-01T08:28:21.695Z,58.29
2018-12-01T08:31:12.076Z,58.20
2018-12-01T08:34:02.815Z,57.05
2018-12-01T08:36:53.850Z,59.08
2018-12-01T08:39:44.704Z,59.42
2018-12-01T08:42:35.496Z,58.24
2018-12-01T08:45:26.314Z,58.36
2018-12-01T08:48:17.123Z,57.35
2018-12-01T08:51:07.472Z,58.06
2018-12-01T08:53:58.302Z,60.19
2018-12-01T08:56:49.021Z,58.78
2018-12-01T08:59:39.210Z,61.25
2018-12-01T09:02:30.066Z,61.04
2018-12-01T09:05:21.058Z,60.36
2018-12-01T09:08:11.766Z,58.71
2018-12-01T09:11:02.201Z,59.60
2018-12-01T09:13:52.783Z,59.55
2018-12-01T09:16:43.814Z,58.56
2018-12-01T09:19:33.726Z,58.79
2018-12-01T09:22:23.586Z,59.52
2018-12-01T09:25:16.522Z,58.81
2018-12-01T09:28:07.663Z,59.53
2018-12-01T09:30:58.220Z,58.67
2018-12-01T09:33:48.089Z,57.28
2018-12-01T09:36:37.939Z,57.00
2018-12-01T09:39:27.835Z,57.16
2018-12-01T09:42:18.632Z,55.53
2018-12-01T09:45:11.796Z,58.09
2018-12-01T09:48:03.355Z,58.51
2018-12-01T09:50:54.290Z,56.85
2018-12-01T09:53:44.871Z,56.27
2018-12-01T09:56:35.040Z,56.44
2018-12-01T09:59:25.821Z,53.82
2018-12-01T10:02:15.766Z,53.73
2018-12-01T10:05:07.788Z,54.40
2018-12-01T10:07:58.256Z,54.61
2018-12-01T10:10:48.259Z,55.46
2018-12-01T10:13:38.266Z,54.43
2018-12-01T10:16:29.074Z,55.22
2018-12-01T10:19:18.951Z,57.43
2018-12-01T10:22:08.970Z,57.61
2018-12-01T10:24:59.831Z,57.15
2018-12-01T10:27:50.865Z,57.79
2018-12-01T10:30:42.031Z,57.71
2018-12-01T10:33:34.063Z,57.63
2018-12-01T10:36:24.333Z,58.91
2018-12-01T10:39:15.359Z,59.58
2018-12-01T10:42:05.237Z,58.80
2018-12-01T10:44:55.108Z,60.96
2018-12-01T10:47:45.483Z,60.16
2018-12-01T10:50:36.024Z,59.80
2018-12-01T10:53:26.630Z,61.77
2018-12-01T10:56:16.325Z,62.09
2018-12-01T10:59:06.081Z,63.37
2018-12-01T11:02:01.972Z,59.82
2018-12-01T11:04:52.105Z,63.58
2018-12-01T11:07:42.489Z,61.06
2018-12-01T11:10:32.393Z,61.69
2018-12-01T11:13:22.069Z,62.18
2018-12-01T11:16:12.896Z,61.25
2018-12-01T11:19:03.642Z,64.04
2018-12-01T11:21:53.953Z,60.57
2018-12-01T11:24:44.363Z,62.65
2018-12-01T11:27:35.061Z,63.55
2018-12-01T11:30:24.964Z,64.72
2018-12-01T11:33:15.949Z,62.69
2018-12-01T11:36:06.275Z,64.97
2018-12-01T11:38:57.042Z,63.31
2018-12-01T11:41:47.896Z,66.23
2018-12-01T11:44:38.086Z,65.87
2018-12-01T11:47:28.870Z,66.51
2018-12-01T11:50:20.028Z,67.60
2018-12-01T11:53:11.438Z,68.41
2018-12-01T11:56:02.476Z,68.74
2018-12-01T11:58:52.391Z,66.41
2018-12-01T12:01:43.316Z,66.96
2018-12-01T12:04:34.038Z,67.25
2018-12-01T12:07:35.050Z,67.54
2018-12-01T12:10:25.179Z,67.48
2018-12-01T12:13:15.826Z,67.59
2018-12-01T12:16:06.084Z,68.40
2018-12-01T12:18:56.683Z,68.27
2018-12-01T12:21:47.315Z,65.77
2018-12-01T12:24:37.240Z,65.23
2018-12-01T12:27:27.070Z,65.54
2018-12-01T12:30:18.049Z,66.21
2018-12-01T12:33:08.919Z,65.58
2018-12-01T12:35:58.959Z,65.24
2018-12-01T12:38:49.474Z,65.85
2018-12-01T12:41:39.648Z,66.89
2018-12-01T12:44:30.258Z,68.56
2018-12-01T12:47:20.235Z,69.22
2018-12-01T12:50:13.903Z,68.05
2018-12-01T12:53:03.910Z,69.39
2018-12-01T12:55:54.051Z,67.67
2018-12-01T12:58:44.959Z,69.65
2018-12-01T13:01:35.695Z,70.03
2018-12-01T13:04:26.533Z,68.97
2018-12-01T13:07:16.266Z,69.16
2018-12-01T13:10:11.335Z,68.87
2018-12-01T13:13:01.294Z,68.44
2018-12-01T13:15:51.362Z,69.92
2018-12-01T13:18:42.171Z,70.95
2018-12-01T13:21:32.324Z,71.41
2018-12-01T13:24:23.001Z,72.32
2018-12-01T13:27:13.018Z,72.34
2018-12-01T13:30:03.779Z,71.91
2018-12-01T13:32:54.602Z,72.60
2018-12-01T13:35:45.359Z,71.99
2018-12-01T13:38:35.289Z,72.19
2018-12-01T13:41:25.906Z,72.78
2018-12-01T13:44:16.054Z,72.09
2018-12-01T13:47:06.898Z,72.90
2018-12-01T13:49:57.795Z,73.29
2018-12-01T13:52:54.738Z,75.23
2018-12-01T13:55:45.551Z,74.38
2018-12-01T13:58:35.586Z,75.68
2018-12-01T14:01:26.282Z,75.81
2018-12-01T14:04:16.255Z,75.26
2018-12-01T14:07:06.141Z,76.26
2018-12-01T14:09:56.007Z,76.80
2018-12-01T14:12:47.331Z,76.80
2018-12-01T14:15:37.598Z,75.97
2018-12-01T14:18:28.538Z,75.20
2018-12-01T14:21:19.252Z,76.22
2018-12-01T14:24:09.376Z,76.46
2018-12-01T14:27:00.385Z,76.87
2018-12-01T14:29:50.503Z,77.19
2018-12-01T14:32:40.295Z,77.04
2018-12-01T14:35:31.685Z,76.85
2018-12-01T14:38:22.154Z,77.08
2018-12-01T14:41:12.222Z,76.96
2018-12-01T14:44:02.951Z,77.35
2018-12-01T14:46:52.906Z,78.42
2018-12-01T14:49:42.622Z,77.95
2018-12-01T14:52:32.726Z,77.38
2018-12-01T14:55:23.935Z,78.05
2018-12-01T14:58:15.017Z,78.65
2018-12-01T15:01:06.089Z,78.92
2018-12-01T15:03:56.865Z,78.60
2018-12-01T15:06:46.616Z,78.80
2018-12-01T15:09:37.342Z,78.30
2018-12-01T15:12:27.307Z,78.34
2018-12-01T15:15:19.854Z,78.75
2018-12-01T15:18:10.062Z,79.44
2018-12-01T15:21:01.205Z,79.13
2018-12-01T15:23:52.530Z,79.66
2018-12-01T15:26:42.798Z,79.59
2018-12-01T15:29:33.487Z,79.24
2018-12-01T15:32:23.530Z,79.58
2018-12-01T15:35:14.374Z,79.24
2018-12-01T15:38:04.449Z,80.08
2018-12-01T15:40:55.171Z,80.35
2018-12-01T15:43:45.074Z,81.00
2018-12-01T15:46:35.077Z,81.01
2018-12-01T15:49:25.509Z,80.69
2018-12-01T15:52:15.921Z,81.98
2018-12-01T15:55:08.822Z,82.17
2018-12-01T15:57:58.704Z,82.15
2018-12-01T16:00:49.590Z,81.14
2018-12-01T16:03:40.287Z,81.13
2018-12-01T16:06:30.698Z,80.21
2018-12-01T16:09:21.433Z,79.57
2018-12-01T16:12:12.447Z,79.25
2018-12-01T16:15:02.877Z,80.35
2018-12-01T16:17:53.062Z,82.05
2018-12-01T16:20:43.619Z,82.73
2018-12-01T16:23:34.027Z,84.79
2018-12-01T16:26:24.432Z,90.35
2018-12-01T16:29:14.268Z,94.53
2018-12-01T16:32:04.110Z,94.34
2018-12-01T16:34:55.184Z,94.43
2018-12-01T16:37:45.691Z,94.98
2018-12-01T16:40:44.712Z,97.39
2018-12-01T16:43:36.122Z,100.00
2018-12-01T16:46:26.318Z,100.00
2018-12-01T16:49:17.044Z,100.00
2018-12-01T16:52:07.636Z,100.00
2018-12-01T16:54:57.562Z,100.00
2018-12-01T16:57:47.695Z,100.00
2018-12-01T17:00:38.514Z,100.00
2018-12-01T17:03:29.370Z,100.00
2018-12-01T17:06:20.586Z,100.00
2018-12-01T17:09:11.257Z,100.00
2018-12-01T17:12:01.230Z,100.00
2018-12-01T17:14:51.070Z,100.00
2018-12-01T17:17:40.745Z,100.00
2018-12-01T17:20:31.083Z,100.00
2018-12-01T17:23:20.812Z,100.00
2018-12-01T17:26:11.408Z,100.00
2018-12-01T17:29:01.756Z,100.00
2018-12-01T17:31:52.707Z,100.00
2018-12-01T17:34:43.555Z,100.00
2018-12-01T17:37:34.155Z,100.00
2018-12-01T17:40:37.008Z,100.00
2018-12-01T17:43:46.770Z,100.00
2018-12-01T17:46:36.894Z,100.00
2018-12-01T17:49:26.955Z,100.00
2018-12-01T17:52:17.093Z,100.00
2018-12-01T17:55:09.711Z,100.00
2018-12-01T17:57:59.944Z,100.00
2018-12-01T18:00:50.172Z,100.00
2018-12-01T18:03:40.858Z,100.00
2018-12-01T18:06:30.942Z,100.00
2018-12-01T18:09:21.854Z,100.00
2018-12-01T18:12:11.693Z,100.00
2018-12-01T18:15:01.719Z,100.00
2018-12-01T18:17:51.458Z,100.00
2018-12-01T18:20:41.335Z,100.00
2018-12-01T18:23:31.014Z,100.00
2018-12-01T18:26:21.838Z,100.00
2018-12-01T18:29:13.343Z,100.00
2018-12-01T18:32:03.733Z,100.00
2018-12-01T18:34:54.370Z,100.00
2018-12-01T18:37:44.214Z,100.00
2018-12-01T18:40:34.168Z,100.00
2018-12-01T18:43:24.103Z,100.00
2018-12-01T18:46:16.035Z,100.00
2018-12-01T18:49:07.521Z,100.00
2018-12-01T18:51:57.701Z,100.00
2018-12-01T18:54:48.278Z,100.00
2018-12-01T18:57:38.988Z,100.00
2018-12-01T19:00:31.957Z,100.00
2018-12-01T19:03:23.929Z,100.00
2018-12-01T19:06:14.156Z,100.00
2018-12-01T19:09:06.338Z,100.00
2018-12-01T19:11:56.688Z,100.00
2018-12-01T19:14:46.602Z,100.00
2018-12-01T19:17:36.437Z,100.00
2018-12-01T19:20:26.415Z,100.00
2018-12-01T19:23:17.511Z,100.00
2018-12-01T19:26:07.923Z,100.00
2018-12-01T19:28:57.906Z,100.00
2018-12-01T19:31:47.825Z,100.00
2018-12-01T19:34:37.805Z,100.00
2018-12-01T19:37:28.711Z,100.00
2018-12-01T19:40:28.557Z,100.00
2018-12-01T19:43:17.021Z,100.00
2018-12-01T19:46:07.943Z,100.00
2018-12-01T19:48:57.764Z,100.00
2018-12-01T19:51:48.635Z,100.00
2018-12-01T19:54:38.771Z,100.00
2018-12-01T19:57:28.691Z,100.00
2018-12-01T20:00:22.593Z,100.00
2018-12-01T20:03:18.702Z,100.00
2018-12-01T20:06:09.475Z,100.00
2018-12-01T20:09:00.850Z,100.00
2018-12-01T20:11:51.171Z,100.00
2018-12-01T20:14:41.713Z,100.00
2018-12-01T20:17:31.583Z,100.00
2018-12-01T20:20:21.545Z,100.00
2018-12-01T20:23:12.677Z,100.00
2018-12-01T20:26:03.191Z,100.00
2018-12-01T20:28:54.043Z,100.00
2018-12-01T20:31:44.741Z,100.00
2018-12-01T20:34:35.589Z,100.00
2018-12-01T20:37:25.418Z,100.00
2018-12-01T20:40:17.704Z,100.00
2018-12-01T20:43:08.195Z,100.00
2018-12-01T20:45:58.031Z,100.00
2018-12-01T20:48:47.959Z,100.00
2018-12-01T20:51:38.107Z,100.00
2018-12-01T20:54:35.552Z,100.00
2018-12-01T20:57:28.775Z,100.00
2018-12-01T21:00:18.659Z,100.00
2018-12-01T21:03:08.590Z,100.00
2018-12-01T21:05:58.505Z,100.00
2018-12-01T21:08:49.481Z,100.00
2018-12-01T21:11:40.178Z,100.00
2018-12-01T21:14:31.011Z,100.00
2018-12-01T21:17:21.014Z,100.00
2018-12-01T21:20:14.640Z,100.00
2018-12-01T21:23:05.023Z,100.00
2018-12-01T21:25:55.451Z,100.00
2018-12-01T21:28:46.085Z,100.00
2018-12-01T21:31:36.843Z,100.00
2018-12-01T21:34:27.629Z,100.00
2018-12-01T21:37:18.374Z,100.00
2018-12-01T21:40:12.856Z,100.00
2018-12-01T21:43:03.318Z,100.00
2018-12-01T21:45:53.299Z,100.00
2018-12-01T21:48:43.094Z,100.00
2018-12-01T21:51:32.968Z,100.00
2018-12-01T21:54:22.943Z,100.00
2018-12-01T21:57:12.823Z,100.00
2018-12-01T22:00:03.097Z,100.00
2018-12-01T22:03:05.879Z,100.00
2018-12-01T22:05:58.516Z,100.00
2018-12-01T22:08:48.660Z,100.00
2018-12-01T22:11:39.350Z,100.00
2018-12-01T22:14:29.080Z,100.00
2018-12-01T22:17:19.363Z,100.00
2018-12-01T22:20:12.063Z,100.00
2018-12-01T22:23:03.405Z,100.00
2018-12-01T22:25:53.450Z,100.00
2018-12-01T22:28:44.370Z,100.00
2018-12-01T22:31:34.041Z,100.00
2018-12-01T22:34:23.982Z,100.00
2018-12-01T22:37:14.626Z,100.00
2018-12-01T22:40:05.344Z,100.00
2018-12-01T22:42:56.780Z,100.00
2018-12-01T22:45:47.466Z,100.00
2018-12-01T22:48:37.450Z,100.00
2018-12-01T22:51:27.720Z,100.00
2018-12-01T22:54:18.222Z,100.00
2018-12-01T22:57:08.243Z,100.00
2018-12-01T22:59:58.058Z,100.00
2018-12-01T23:02:48.423Z,100.00
2018-12-01T23:05:39.006Z,100.00
2018-12-01T23:08:29.882Z,100.00
2018-12-01T23:11:20.199Z,100.00
2018-12-01T23:14:10.098Z,100.00
2018-12-01T23:16:59.726Z,100.00
2018-12-01T23:19:50.473Z,100.00
2018-12-01T23:22:41.174Z,100.00
2018-12-01T23:25:31.267Z,100.00
2018-12-01T23:28:21.944Z,100.00
2018-12-01T23:31:13.092Z,100.00
2018-12-01T23:34:03.383Z,100.00
2018-12-01T23:36:53.574Z,100.00
2018-12-01T23:39:44.318Z,100.00
2018-12-01T23:42:35.123Z,100.00
2018-12-01T23:45:25.190Z,100.00
2018-12-01T23:48:15.660Z,100.00
2018-12-01T23:51:06.887Z,100.00
2018-12-01T23:53:57.362Z,100.00
2018-12-01T23:56:47.192Z,100.00
2018-12-01T23:59:37.914Z,100.00
